Aviation Digital Data Service (ADDS)

Output produced by METARs form (1710 UTC 29 May 2017)
found at http://www.aviationweather.gov/adds/metars/
 
EFET 291650Z AUTO CAVOK ///// Q////
EFHA 291650Z 34007KT 9999 FEW044 11/00 Q1009
TAF EFHA 291431Z 2915/2924 35008KT 9999 FEW040
       
EFHK 291650Z 01010KT CAVOK 13/02 Q1008 NOSIG
TAF EFHK 291431Z 2915/3015 01012KT CAVOK 
     BECMG 2920/2922 VRB02KT 
     BECMG 3007/3010 20013KT
       
EFIV 291650Z AUTO 27010KT 230V290 CAVOK 03/M07 Q1007
EFJO 291650Z AUTO 35005KT 320V040 CAVOK 08/M01 Q1008
TAF EFJO 291422Z 2915/2923 33010KT 9999 BKN035
       
EFJY 291650Z AUTO 01007KT 9999 SCT036 09/00 Q1009
TAF EFJY 291431Z 2915/3015 35009KT 9999 FEW035 
     BECMG 3009/3011 23011KT
       
EFKI 291650Z AUTO 31007KT 270V350 9999 FEW049 BKN068 07/00 Q1008
TAF EFKI 291422Z 2915/2921 28010KT 9999 BKN045
       
EFKE 291650Z 36015KT 340V040 CAVOK 09/M06 Q1010
TAF EFKE 291438Z 2915/2921 35008KT 9999 FEW045
       
EFKT 291650Z AUTO 31012KT 270V350 9999 BKN042 04/M05 Q1009
TAF AMD EFKT 291552Z 2916/2918 35008KT 9999 -SHSN FEW045CB
       
EFKK 291650Z VRB02KT CAVOK 09/M03 Q1011
TAF EFKK 291438Z 2915/2923 36007KT CAVOK
       
EFKU 291650Z AUTO 30011KT 9999 SCT044 10/00 Q1008
TAF EFKU 291422Z 2915/3015 34009KT 9999 BKN045 
     BECMG 3000/3003 30003KT
       
EFKS 291650Z AUTO 31007KT 250V010 9999 -SHSN BKN053 BKN089 03/M03 Q1007
EFLP 291650Z AUTO 36008KT 310V060 9999 BKN032 09/02 Q1008
EFMA 291650Z 33011KT 290V360 CAVOK 09/02 Q1012
TAF EFMA 291431Z 2915/2924 35012KT CAVOK 
     BECMG 2917/2919 29005KT
       
EFMI 291650Z AUTO 31005KT 250V010 9999 BKN035 08/01 Q1009
EFOU 291650Z AUTO 32012KT CAVOK 08/M04 Q1010
TAF EFOU 291438Z 2915/3015 30014KT CAVOK 
     BECMG 2919/2921 VRB02KT
       
EFPO 291650Z AUTO 30010KT CAVOK 13/03 Q1010
TAF EFPO 291431Z 2915/2921 32009KT CAVOK
       
EFRO 291650Z AUTO 34012KT CAVOK 05/M09 Q1009
TAF EFRO 291438Z 2915/3015 34012KT 9999 FEW045 
     TEMPO 2915/2916 7000 -SHSNRA SCT045CB
       
EFSA 291650Z AUTO 33005KT 280V010 9999 BKN039 08/00 Q1008
TAF EFSA 291422Z 2915/2920 33009KT 9999 BKN030
       
EFSI 291650Z AUTO 35006KT 320V040 CAVOK 10/M03 Q1011
EFTP 291650Z AUTO 03007KT CAVOK 12/02 Q1010
TAF EFTP 291431Z 2915/3015 03008KT CAVOK 
     BECMG 3009/3011 20010KT
       
EFTU 291650Z AUTO 36007KT CAVOK 15/M01 Q1009
TAF EFTU 291431Z 2915/3015 35008KT CAVOK 
     BECMG 3013/3015 RA
       
EFUT 291650Z AUTO 03009KT 340V060 9999 SCT034 10/01 Q1008
EFVA 291650Z AUTO 08004KT 020V170 CAVOK 11/M03 Q1011
TAF EFVA 291438Z 2915/3015 01008KT CAVOK